• Join FlightAware (Why Join?)
  • Login
  • US Flag 
09:52AM EDT


 

Airport Tracker/Info


-or-


 

Live Flight TrackerFlight Track Log ✈ SWA2394 ✈ 30-Apr-2012 ✈ KSAT - KSAN

Flight Track Log - Related Links

Times and Time Zones

All times are in EDT time to prevent confusion due to time zone crossing. See the SWA2394 flight status page for this flight to view local times or setup timezone preferences in your user account.

Time Position Orientation Groundspeed Altitude Reporting Facility
EDT Latitude Longitude Course Direction KTS MPH feet Rate Location/Type
11:21AM 29.5434 -98.4969 128° Southeast  Level FlightAware Approximate
11:22AM 29.6358 -98.5429 149° Southeast  Level FlightAware Approximate
11:23AM 29.7218 -98.6051 148° Southeast  Level FlightAware Approximate
11:24AM 29.7955 -98.6861 145° Southeast  Level FlightAware Approximate
11:25AM 29.8636 -98.7737 142° Southeast  Level FlightAware Approximate
11:26AM 29.9322 -98.8610 140° Southeast  Level FlightAware Approximate
11:27AM 29.9891 -98.9582 137° Southeast  Level FlightAware Approximate
11:28AM 30.0181 -99.0712 133° Southeast  Level FlightAware Approximate
11:29AM 30.1064 -99.1273 135° Southeast  Level FlightAware Approximate
11:30AM 30.1674 -99.2217 134° Southeast  Level FlightAware Approximate
11:31AM 30.2390 -99.3057 134° Southeast  Level FlightAware Approximate
11:31AM 29.5206 -98.4628 133° Southeast 153 176 1,700  Level Houston Center
11:32AM 29.4814 -98.4147 246° West 212 244 4,300 3,000 Climbing Houston Center
11:33AM 29.4669 -98.4519 320° Northwest 249 287 7,300 3,360 Climbing Houston Center
11:34AM 29.5286 -98.5108 325° Northwest 299 344 10,200 2,280 Climbing Houston Center
11:35AM 29.5908 -98.5603 324° Northwest 337 388 11,900 2,640 Climbing Houston Center
11:36AM 29.6789 -98.6331 305° West 351 404 15,500 2,940 Climbing Houston Center
11:37AM 29.7308 -98.7178 316° Northwest 351 404 17,900 2,700 Climbing Houston Center
11:38AM 29.8136 -98.8097 318° Northwest 368 423 20,900 2,280 Climbing Houston Center
11:39AM 29.8886 -98.8867 317° Northwest 392 451 22,500 2,040 Climbing Houston Center
11:40AM 29.9833 -98.9892 319° Northwest 417 480 25,100 2,100 Climbing Houston Center
11:41AM 30.0644 -99.0717 304° West 427 491 26,800 1,740 Climbing Houston Center
11:42AM 30.1386 -99.1992 286° West 428 493 28,600 1,860 Climbing Houston Center
11:43AM 30.1728 -99.3339 287° West 428 493 30,600 2,160 Climbing Houston Center
11:44AM 30.2069 -99.4658 288° West 434 499 33,000 1,980 Climbing Houston Center
11:45AM 30.2431 -99.5983 286° West 434 499 34,600 1,500 Climbing Houston Center
11:46AM 30.2750 -99.7258 283° West 428 493 36,100 1,440 Climbing Houston Center
11:47AM 30.2972 -99.8403 287° West 419 482 37,500 900 Climbing Houston Center
11:48AM 30.3347 -99.9803 287° West 414 476 38,000 240 Climbing Houston Center
11:49AM 30.3650 -100.0933 288° West 414 476 38,000  Level Houston Center
11:50AM 30.4008 -100.2214 286° West 414 476 38,000  Level Houston Center
11:51AM 30.4322 -100.3492 288° West 414 476 38,000  Level Houston Center
11:54AM 30.5347 -100.7261 286° West 414 476 38,000  Level Houston Center
11:55AM 30.5656 -100.8517 284° West 414 476 38,000  Level Houston Center
11:56AM 30.5942 -100.9819 288° West 409 471 38,000  Level Houston Center
11:57AM 30.6294 -101.1056 286° West 409 471 38,000  Level Houston Center
11:58AM 30.6619 -101.2339 287° West 409 471 38,000  Level Houston Center
11:59AM 30.6947 -101.3600 287° West 409 471 38,000  Level Houston Center
12:00PM 30.7272 -101.4861 286° West 409 471 38,000  Level Houston Center
12:01PM 30.7575 -101.6119 284° West 409 471 38,000  Level Houston Center
12:02PM 30.7836 -101.7375 286° West 409 471 38,000  Level Houston Center
12:04PM 30.8464 -101.9928 286° West 410 472 38,000  Level Albuquerque Center
12:05PM 30.8769 -102.1189 286° West 415 478 38,000  Level Albuquerque Center
12:06PM 30.9100 -102.2522 286° West 420 483 38,000  Level Albuquerque Center
12:07PM 30.9425 -102.3833 285° West 420 483 38,000  Level Albuquerque Center
12:08PM 30.9728 -102.5147 286° West 425 489 38,000  Level Albuquerque Center
12:09PM 31.0053 -102.6483 286° West 430 495 38,000  Level Albuquerque Center
12:10PM 31.0375 -102.7822 286° West 430 495 38,000  Level Albuquerque Center
12:11PM 31.0647 -102.8969 286° West 425 489 38,000  Level Albuquerque Center
12:12PM 31.0967 -103.0286 285° West 425 489 38,000  Level Albuquerque Center
12:13PM 31.1264 -103.1603 285° West 425 489 38,000  Level Albuquerque Center
12:14PM 31.1558 -103.2897 286° West 425 489 38,000  Level Albuquerque Center
12:15PM 31.1872 -103.4192 285° West 425 489 38,000  Level Albuquerque Center
12:16PM 31.2186 -103.5536 286° West 425 489 38,000  Level Albuquerque Center
12:17PM 31.2497 -103.6833 286° West 430 495 38,000  Level Albuquerque Center
12:18PM 31.2833 -103.8253 284° West 430 495 38,000  Level Albuquerque Center
12:19PM 31.3119 -103.9575 285° West 425 489 38,000  Level Albuquerque Center
12:20PM 31.3428 -104.0900 286° West 425 489 38,000  Level Albuquerque Center
12:21PM 31.3711 -104.2078 284° West 425 489 38,000  Level Albuquerque Center
12:22PM 31.3994 -104.3381 284° West 425 489 38,000  Level Albuquerque Center
12:23PM 31.4275 -104.4683 285° West 425 489 38,000  Level Albuquerque Center
12:24PM 31.4578 -104.5986 284° West 420 483 38,000  Level Albuquerque Center
12:25PM 31.4856 -104.7292 285° West 420 483 38,000  Level Albuquerque Center
12:26PM 31.5156 -104.8622 284° West 420 483 38,000  Level Albuquerque Center
12:27PM 31.5433 -104.9903 284° West 420 483 38,000  Level Albuquerque Center
12:28PM 31.5708 -105.1211 285° West 415 478 38,000 240 Level Albuquerque Center
12:29PM 31.6003 -105.2494 284° West 415 478 38,500 840 Climbing Albuquerque Center
12:30PM 31.6272 -105.3756 283° West 410 472 39,700 720 Climbing Albuquerque Center
12:31PM 31.6522 -105.5017 285° West 410 472 40,000 120 Climbing Albuquerque Center
12:32PM 31.6814 -105.6328 284° West 410 472 40,000  Level Albuquerque Center
12:33PM 31.7081 -105.7614 283° West 410 472 40,000  Level Albuquerque Center
12:34PM 31.7328 -105.8878 285° West 410 472 40,000  Level Albuquerque Center
12:35PM 31.7614 -106.0167 284° West 410 472 40,000  Level Albuquerque Center
12:36PM 31.7878 -106.1456 285° West 410 472 40,000  Level Albuquerque Center
12:37PM 31.8161 -106.2744 282° West 410 472 40,000  Level Albuquerque Center
12:38PM 31.8400 -106.4036 284° West 410 472 40,000  Level Albuquerque Center
12:39PM 31.8661 -106.5306 284° West 410 472 40,000  Level Albuquerque Center
12:40PM 31.8919 -106.6572 284° West 410 472 40,000  Level Albuquerque Center
12:41PM 31.9197 -106.7867 283° West 410 472 40,000  Level Albuquerque Center
12:42PM 31.9453 -106.9161 283° West 410 472 40,000  Level Albuquerque Center
12:43PM 31.9706 -107.0456 283° West 410 472 40,000  Level Albuquerque Center
12:44PM 31.9958 -107.1750 283° West 410 472 40,000  Level Albuquerque Center
12:45PM 32.0211 -107.3047 283° West 410 472 40,000  Level Albuquerque Center
12:46PM 32.0461 -107.4369 283° West 410 472 40,000  Level Albuquerque Center
12:47PM 32.0711 -107.5644 283° West 410 472 40,000  Level Albuquerque Center
12:48PM 32.0978 -107.6967 282° West 410 472 40,000  Level Albuquerque Center
12:49PM 32.1225 -107.8292 281° West 410 472 40,000  Level Albuquerque Center
12:50PM 32.1447 -107.9639 283° West 410 472 40,000  Level Albuquerque Center
12:51PM 32.1711 -108.0942 283° West 410 472 40,000  Level Albuquerque Center
12:52PM 32.1972 -108.2242 282° West 410 472 40,000  Level Albuquerque Center
12:53PM 32.2214 -108.3569 283° West 410 472 40,000  Level Albuquerque Center
12:54PM 32.2492 -108.4997 283° West 410 472 40,000  Level Albuquerque Center
12:55PM 32.2750 -108.6325 282° West 410 472 40,000  Level Albuquerque Center
12:56PM 32.2967 -108.7508 282° West 410 472 40,000  Level Albuquerque Center
12:57PM 32.3200 -108.8789 282° West 410 472 40,000  Level Albuquerque Center
12:58PM 32.3433 -109.0069 281° West 410 472 40,000  Level Albuquerque Center
12:59PM 32.3644 -109.1350 283° West 410 472 40,000  Level Albuquerque Center
01:00PM 32.3897 -109.2633 283° West 410 472 40,000  Level Albuquerque Center
01:01PM 32.4147 -109.3894 281° West 410 472 40,000  Level Albuquerque Center
01:02PM 32.4353 -109.5203 282° West 410 472 40,000  Level Albuquerque Center
01:03PM 32.4581 -109.6486 282° West 410 472 40,000  Level Albuquerque Center
01:04PM 32.4825 -109.7797 283° West 410 472 40,000  Level Albuquerque Center
01:05PM 32.5072 -109.9058 281° West 405 466 40,000  Level Albuquerque Center
01:06PM 32.5272 -110.0319 282° West 405 466 40,000  Level Albuquerque Center
01:07PM 32.5494 -110.1558 281° West 399 459 40,000  Level Albuquerque Center
01:08PM 32.5714 -110.2869 283° West 399 459 40,000  Level Albuquerque Center
01:09PM 32.5972 -110.4211 281° West 394 453 40,000  Level Albuquerque Center
01:10PM 32.6189 -110.5522 286° West 394 453 40,000  Level Albuquerque Center
01:11PM 32.6469 -110.6692 276° West 386 444 40,000  Level Albuquerque Center
01:12PM 32.6581 -110.7931 281° West 392 451 40,000  Level Albuquerque Center
01:13PM 32.6792 -110.9244 281° West 397 457 40,000  Level Albuquerque Center
01:14PM 32.7006 -111.0511 281° West 397 457 40,000  Level Albuquerque Center
01:15PM 32.7214 -111.1803 282° West 397 457 40,000  Level Albuquerque Center
01:16PM 32.7444 -111.3097 280° West 392 451 40,000  Level Albuquerque Center
01:17PM 32.7631 -111.4364 281° West 392 451 40,000 -420 Level Albuquerque Center
01:18PM 32.7853 -111.5758 281° West 392 451 39,200 -900 Descending Albuquerque Center
01:19PM 32.8058 -111.7028 281° West 392 451 38,300 -600 Descending Albuquerque Center
01:20PM 32.8261 -111.8322 282° West 392 451 38,000 -180 Descending Albuquerque Center
01:21PM 32.8483 -111.9594 280° West 392 451 38,000  Level Albuquerque Center
01:22PM 32.8633 -112.0617 281° West 392 451 38,000  Level Albuquerque Center
01:23PM 32.8850 -112.1986 280° West 392 451 38,000  Level Albuquerque Center
01:24PM 32.9047 -112.3283 279° West 392 451 38,000  Level Albuquerque Center
01:25PM 32.9222 -112.4581 281° West 392 451 38,000  Level Albuquerque Center
01:26PM 32.9436 -112.5878 274° West 392 451 38,000  Level Albuquerque Center
01:27PM 32.9506 -112.7169 263° West 392 451 38,000  Level Albuquerque Center
01:28PM 32.9364 -112.8447 259° West 386 444 38,000 -360 Level Albuquerque Center
01:29PM 32.9156 -112.9769 260° West 397 457 37,300 -900 Descending Albuquerque Center
01:30PM 32.8969 -113.1067 261° West 403 464 36,300 -960 Descending Albuquerque Center
01:31PM 32.8778 -113.2439 262° West 413 475 35,400 -960 Descending Albuquerque Center
01:32PM 32.8606 -113.3808 260° West 419 482 34,400 -720 Descending Albuquerque Center
01:33PM 32.8411 -113.5178 260° West 424 488 34,000 -180 Descending Albuquerque Center
01:35PM 32.7972 -113.8208 260° West 429 494 34,000  Level Los Angeles Center
01:36PM 32.7767 -113.9572 268° West 429 494 34,000  Level Los Angeles Center
01:37PM 32.7728 -114.0933 269° West 429 494 34,000 -240 Level Los Angeles Center
01:38PM 32.7708 -114.2317 270° West 423 487 33,600 -780 Descending Los Angeles Center
01:39PM 32.7708 -114.3725 269° West 423 487 32,500 -1,080 Descending Los Angeles Center
01:40PM 32.7686 -114.5133 269° West 423 487 31,500 -1,020 Descending Los Angeles Center
01:41PM 32.7661 -114.6492 269° West 423 487 30,500 -1,020 Descending Los Angeles Center
01:42PM 32.7636 -114.7875 268° West 423 487 29,500 -960 Descending Los Angeles Center
01:43PM 32.7586 -114.9283 269° West 423 487 28,600 -1,020 Descending Los Angeles Center
01:44PM 32.7558 -115.0617 269° West 423 487 27,500 -1,080 Descending Los Angeles Center
01:45PM 32.7547 -115.1950 268° West 418 481 26,500 -1,020 Descending Los Angeles Center
01:46PM 32.7514 -115.3283 268° West 418 481 25,500 -1,020 Descending Los Angeles Center
01:47PM 32.7481 -115.4619 270° West 412 474 24,500 -1,020 Descending Los Angeles Center
01:48PM 32.7486 -115.5903 272° West 406 467 23,500 -1,020 Descending Los Angeles Center
01:49PM 32.7533 -115.7211 271° West 399 459 22,500 -1,320 Descending Los Angeles Center
01:50PM 32.7558 -115.8469 272° West 394 453 20,900 -1,800 Descending Los Angeles Center
01:51PM 32.7603 -115.9706 271° West 388 447 18,900 -2,040 Descending Los Angeles Center
01:52PM 32.7625 -116.0914 271° West 378 435 16,900 -2,040 Descending Los Angeles Center
01:53PM 32.7644 -116.2053 270° West 366 421 14,800 -2,040 Descending Los Angeles Center
01:54PM 32.7642 -116.3164 259° West 355 409 12,900 -1,920 Descending Los Angeles Center
01:55PM 32.7475 -116.4225 260° West 342 394 11,000 -1,500 Descending Los Angeles Center
01:56PM 32.7303 -116.5361 261° West 330 380 9,900 -1,020 Descending Los Angeles Center
01:57PM 32.7175 -116.6272 265° West 314 361 9,000 -1,140 Descending Los Angeles Center
01:58PM 32.7108 -116.7136 268° West 284 327 7,700 -1,320 Descending Los Angeles Center
01:59PM 32.7083 -116.7925 257° West 263 303 6,500 -1,200 Descending Los Angeles Center
02:00PM 32.6933 -116.8714 255° West 251 289 5,400 -1,200 Descending Los Angeles Center
02:01PM 32.6833 -116.9167 270° West 239 275 4,600 -1,140 Descending Southern California TRACON
02:02PM 32.6833 -116.9833 292° West 204 235 3,700 -1,020 Descending Southern California TRACON
02:03PM 32.7000 -117.0333 292° West 188 216 2,700 -960 Descending Southern California TRACON
02:04PM 32.7167 -117.0833 270° West 145 167 1,800 -900 Descending Southern California TRACON
02:05PM 32.7167 -117.1333 301° West 128 147 1,000 -720 Descending Southern California TRACON
02:06PM 32.7333 -117.1667 301° West 131 151 400 -600 Descending Southern California TRACON